sensor_id;sensor_type;location;lat;lon;timestamp;pressure;altitude;pressure_sealevel;temperature;humidity
72110;BME280;59983;52.010;5.420;2023-04-04T00:00:23;103080.38;;;5.08;61.83
72110;BME280;59983;52.010;5.420;2023-04-04T00:02:50;103079.38;;;5.15;61.53
72110;BME280;59983;52.010;5.420;2023-04-04T00:05:17;103080.38;;;5.08;62.34
72110;BME280;59983;52.010;5.420;2023-04-04T00:07:47;103091.56;;;5.00;62.20
72110;BME280;59983;52.010;5.420;2023-04-04T00:10:14;103090.94;;;4.93;61.81
72110;BME280;59983;52.010;5.420;2023-04-04T00:12:41;103077.50;;;4.93;62.21
72110;BME280;59983;52.010;5.420;2023-04-04T00:15:09;103087.41;;;4.88;62.46
72110;BME280;59983;52.010;5.420;2023-04-04T00:17:35;103088.91;;;4.78;62.77
72110;BME280;59983;52.010;5.420;2023-04-04T00:20:02;103076.53;;;4.77;62.42
72110;BME280;59983;52.010;5.420;2023-04-04T00:22:29;103081.31;;;4.75;62.55
72110;BME280;59983;52.010;5.420;2023-04-04T00:32:28;103069.50;;;4.76;62.22
72110;BME280;59983;52.010;5.420;2023-04-04T00:34:55;103068.75;;;4.59;62.87
72110;BME280;59983;52.010;5.420;2023-04-04T00:37:22;103063.75;;;4.46;63.62
72110;BME280;59983;52.010;5.420;2023-04-04T00:39:49;103053.81;;;4.46;63.71
72110;BME280;59983;52.010;5.420;2023-04-04T00:42:15;103058.19;;;4.52;63.01
72110;BME280;59983;52.010;5.420;2023-04-04T00:44:42;103052.88;;;4.58;63.24
72110;BME280;59983;52.010;5.420;2023-04-04T00:47:08;103049.13;;;4.59;62.81
72110;BME280;59983;52.010;5.420;2023-04-04T00:49:35;103046.69;;;4.57;63.34
72110;BME280;59983;52.010;5.420;2023-04-04T00:52:03;103053.56;;;4.48;63.40
72110;BME280;59983;52.010;5.420;2023-04-04T00:54:33;103055.81;;;4.56;63.38
72110;BME280;59983;52.010;5.420;2023-04-04T00:57:01;103058.84;;;4.60;63.00
72110;BME280;59983;52.010;5.420;2023-04-04T00:59:28;103057.25;;;4.64;63.52
72110;BME280;59983;52.010;5.420;2023-04-04T01:01:54;103046.00;;;4.45;63.68
72110;BME280;59983;52.010;5.420;2023-04-04T01:04:21;103047.44;;;4.52;63.24
72110;BME280;59983;52.010;5.420;2023-04-04T01:06:49;103047.38;;;4.47;63.27
72110;BME280;59983;52.010;5.420;2023-04-04T01:09:16;103050.88;;;4.48;63.38
72110;BME280;59983;52.010;5.420;2023-04-04T01:11:43;103045.88;;;4.35;63.26
72110;BME280;59983;52.010;5.420;2023-04-04T01:14:09;103054.00;;;4.23;63.32
72110;BME280;59983;52.010;5.420;2023-04-04T01:16:36;103049.97;;;4.20;63.88
72110;BME280;59983;52.010;5.420;2023-04-04T01:19:05;103047.22;;;4.15;63.75
72110;BME280;59983;52.010;5.420;2023-04-04T01:21:34;103050.88;;;4.09;63.36
72110;BME280;59983;52.010;5.420;2023-04-04T01:24:02;103050.75;;;3.99;63.87
72110;BME280;59983;52.010;5.420;2023-04-04T01:26:30;103048.38;;;4.03;64.30
72110;BME280;59983;52.010;5.420;2023-04-04T01:28:57;103045.13;;;4.01;64.46
72110;BME280;59983;52.010;5.420;2023-04-04T01:31:34;103039.91;;;3.94;64.29
72110;BME280;59983;52.010;5.420;2023-04-04T01:34:16;103050.22;;;4.02;63.96
72110;BME280;59983;52.010;5.420;2023-04-04T01:37:01;103053.03;;;3.90;64.29
72110;BME280;59983;52.010;5.420;2023-04-04T01:39:42;103041.78;;;3.93;64.59
72110;BME280;59983;52.010;5.420;2023-04-04T01:42:13;103042.59;;;3.94;64.28
72110;BME280;59983;52.010;5.420;2023-04-04T01:44:40;103039.75;;;4.01;64.59
72110;BME280;59983;52.010;5.420;2023-04-04T01:47:07;103043.97;;;3.96;64.31
72110;BME280;59983;52.010;5.420;2023-04-04T01:49:34;103058.13;;;3.92;64.57
72110;BME280;59983;52.010;5.420;2023-04-04T01:52:01;103051.06;;;3.86;64.50
72110;BME280;59983;52.010;5.420;2023-04-04T01:54:28;103038.94;;;3.83;64.65
72110;BME280;59983;52.010;5.420;2023-04-04T01:56:55;103041.38;;;3.68;65.56
72110;BME280;59983;52.010;5.420;2023-04-04T01:59:22;103041.13;;;3.69;65.54
72110;BME280;59983;52.010;5.420;2023-04-04T02:01:49;103057.00;;;3.71;65.31
72110;BME280;59983;52.010;5.420;2023-04-04T02:04:15;103058.03;;;3.70;65.88
72110;BME280;59983;52.010;5.420;2023-04-04T02:06:42;103055.16;;;3.72;66.11
72110;BME280;59983;52.010;5.420;2023-04-04T02:09:08;103058.78;;;3.65;66.10
72110;BME280;59983;52.010;5.420;2023-04-04T02:11:35;103056.44;;;3.69;66.31
72110;BME280;59983;52.010;5.420;2023-04-04T02:14:02;103054.13;;;3.61;66.72
72110;BME280;59983;52.010;5.420;2023-04-04T02:16:29;103049.16;;;3.53;67.33
72110;BME280;59983;52.010;5.420;2023-04-04T02:18:56;103054.06;;;3.56;66.25
72110;BME280;59983;52.010;5.420;2023-04-04T02:21:22;103061.72;;;3.47;67.12
72110;BME280;59983;52.010;5.420;2023-04-04T02:23:50;103058.91;;;3.42;66.91
72110;BME280;59983;52.010;5.420;2023-04-04T02:26:17;103060.50;;;3.55;67.10
72110;BME280;59983;52.010;5.420;2023-04-04T02:28:43;103062.94;;;3.56;67.04
72110;BME280;59983;52.010;5.420;2023-04-04T02:31:10;103053.25;;;3.38;66.62
72110;BME280;59983;52.010;5.420;2023-04-04T02:33:36;103055.56;;;3.35;67.63
72110;BME280;59983;52.010;5.420;2023-04-04T02:36:03;103056.63;;;3.34;68.00
72110;BME280;59983;52.010;5.420;2023-04-04T02:38:30;103055.75;;;3.28;68.16
72110;BME280;59983;52.010;5.420;2023-04-04T02:40:56;103058.56;;;3.22;68.25
72110;BME280;59983;52.010;5.420;2023-04-04T02:43:23;103050.34;;;3.11;68.53
72110;BME280;59983;52.010;5.420;2023-04-04T02:45:49;103049.28;;;3.12;68.81
72110;BME280;59983;52.010;5.420;2023-04-04T02:48:16;103043.69;;;3.14;68.30
72110;BME280;59983;52.010;5.420;2023-04-04T02:50:45;103038.31;;;3.14;68.37
72110;BME280;59983;52.010;5.420;2023-04-04T02:53:12;103047.78;;;3.05;68.85
72110;BME280;59983;52.010;5.420;2023-04-04T02:55:39;103036.81;;;3.06;69.28
72110;BME280;59983;52.010;5.420;2023-04-04T02:58:05;103035.19;;;3.05;68.53
72110;BME280;59983;52.010;5.420;2023-04-04T03:00:32;103037.69;;;2.95;68.68
72110;BME280;59983;52.010;5.420;2023-04-04T03:02:58;103030.03;;;2.87;69.21
72110;BME280;59983;52.010;5.420;2023-04-04T03:05:26;103032.81;;;2.92;69.14
72110;BME280;59983;52.010;5.420;2023-04-04T03:07:53;103019.56;;;2.86;69.31
72110;BME280;59983;52.010;5.420;2023-04-04T03:10:26;103024.81;;;2.80;70.04
72110;BME280;59983;52.010;5.420;2023-04-04T03:12:55;103018.63;;;2.80;69.79
72110;BME280;59983;52.010;5.420;2023-04-04T03:15:22;103019.13;;;2.77;69.91
72110;BME280;59983;52.010;5.420;2023-04-04T03:17:48;103017.50;;;2.76;70.27
72110;BME280;59983;52.010;5.420;2023-04-04T03:20:15;103027.47;;;2.80;70.10
72110;BME280;59983;52.010;5.420;2023-04-04T03:22:42;103022.66;;;2.66;70.76
72110;BME280;59983;52.010;5.420;2023-04-04T03:25:09;103025.47;;;2.59;70.83
72110;BME280;59983;52.010;5.420;2023-04-04T03:27:35;103027.34;;;2.59;71.05
72110;BME280;59983;52.010;5.420;2023-04-04T03:30:02;103034.81;;;2.57;71.35
72110;BME280;59983;52.010;5.420;2023-04-04T03:32:29;103038.41;;;2.50;71.47
72110;BME280;59983;52.010;5.420;2023-04-04T03:34:55;103030.50;;;2.44;71.51
72110;BME280;59983;52.010;5.420;2023-04-04T03:37:22;103029.19;;;2.46;71.74
72110;BME280;59983;52.010;5.420;2023-04-04T03:39:49;103020.59;;;2.44;71.65
72110;BME280;59983;52.010;5.420;2023-04-04T03:42:16;103023.41;;;2.38;71.79
72110;BME280;59983;52.010;5.420;2023-04-04T03:44:42;103010.72;;;2.33;72.02
72110;BME280;59983;52.010;5.420;2023-04-04T03:47:09;103012.31;;;2.46;71.76
72110;BME280;59983;52.010;5.420;2023-04-04T03:49:35;103010.72;;;2.33;71.89
72110;BME280;59983;52.010;5.420;2023-04-04T03:52:02;103000.50;;;2.30;72.37
72110;BME280;59983;52.010;5.420;2023-04-04T03:54:28;103003.38;;;2.28;72.01
72110;BME280;59983;52.010;5.420;2023-04-04T03:56:55;103017.00;;;2.27;72.54
72110;BME280;59983;52.010;5.420;2023-04-04T03:59:22;103006.19;;;2.34;72.60
72110;BME280;59983;52.010;5.420;2023-04-04T04:01:49;103014.91;;;2.29;72.20
72110;BME280;59983;52.010;5.420;2023-04-04T04:04:16;103016.66;;;2.35;72.27
72110;BME280;59983;52.010;5.420;2023-04-04T04:06:43;103017.22;;;2.37;72.39
72110;BME280;59983;52.010;5.420;2023-04-04T04:09:09;103014.78;;;2.36;72.67
72110;BME280;59983;52.010;5.420;2023-04-04T04:11:39;103013.66;;;2.32;72.56
72110;BME280;59983;52.010;5.420;2023-04-04T04:14:05;103019.00;;;2.20;72.76
72110;BME280;59983;52.010;5.420;2023-04-04T04:16:32;103024.50;;;2.13;73.09
72110;BME280;59983;52.010;5.420;2023-04-04T04:18:58;103023.91;;;2.11;73.16
72110;BME280;59983;52.010;5.420;2023-04-04T04:21:25;103030.78;;;2.07;73.52
72110;BME280;59983;52.010;5.420;2023-04-04T04:23:51;103034.03;;;2.09;73.29
72110;BME280;59983;52.010;5.420;2023-04-04T04:26:18;103035.78;;;2.04;73.49
72110;BME280;59983;52.010;5.420;2023-04-04T04:28:45;103033.00;;;1.98;73.86
72110;BME280;59983;52.010;5.420;2023-04-04T04:31:13;103028.31;;;1.94;73.79
72110;BME280;59983;52.010;5.420;2023-04-04T04:33:40;103029.59;;;1.91;73.92
72110;BME280;59983;52.010;5.420;2023-04-04T04:36:07;103025.31;;;1.90;74.37
72110;BME280;59983;52.010;5.420;2023-04-04T04:38:33;103032.53;;;1.90;74.40
72110;BME280;59983;52.010;5.420;2023-04-04T04:41:00;103027.97;;;1.90;74.51
72110;BME280;59983;52.010;5.420;2023-04-04T04:43:27;103021.81;;;1.90;74.24
72110;BME280;59983;52.010;5.420;2023-04-04T04:45:53;103028.47;;;1.87;74.68
72110;BME280;59983;52.010;5.420;2023-04-04T04:48:20;103026.59;;;1.88;74.60
72110;BME280;59983;52.010;5.420;2023-04-04T04:50:47;103019.00;;;1.85;74.78
72110;BME280;59983;52.010;5.420;2023-04-04T04:53:14;103030.19;;;1.82;74.66
72110;BME280;59983;52.010;5.420;2023-04-04T04:55:40;103032.03;;;1.93;75.11
72110;BME280;59983;52.010;5.420;2023-04-04T04:58:11;103027.97;;;1.90;74.81
72110;BME280;59983;52.010;5.420;2023-04-04T05:00:38;103028.09;;;1.95;75.05
72110;BME280;59983;52.010;5.420;2023-04-04T05:03:05;103033.22;;;1.97;75.06
72110;BME280;59983;52.010;5.420;2023-04-04T05:05:34;103042.31;;;1.96;75.29
72110;BME280;59983;52.010;5.420;2023-04-04T05:08:02;103039.38;;;1.97;75.16
72110;BME280;59983;52.010;5.420;2023-04-04T05:10:30;103045.44;;;1.93;75.17
72110;BME280;59983;52.010;5.420;2023-04-04T05:12:56;103045.66;;;1.91;75.33
72110;BME280;59983;52.010;5.420;2023-04-04T05:15:23;103046.94;;;1.89;75.17
72110;BME280;59983;52.010;5.420;2023-04-04T05:17:54;103046.47;;;1.80;75.41
72110;BME280;59983;52.010;5.420;2023-04-04T05:20:21;103042.84;;;1.75;76.10
72110;BME280;59983;52.010;5.420;2023-04-04T05:22:48;103042.50;;;1.71;76.05
72110;BME280;59983;52.010;5.420;2023-04-04T05:25:17;103047.84;;;1.71;76.52
72110;BME280;59983;52.010;5.420;2023-04-04T05:27:47;103044.38;;;1.70;76.24
72110;BME280;59983;52.010;5.420;2023-04-04T05:30:14;103045.75;;;1.73;76.82
72110;BME280;59983;52.010;5.420;2023-04-04T05:32:43;103051.94;;;1.74;76.74
72110;BME280;59983;52.010;5.420;2023-04-04T05:35:11;103037.75;;;1.73;76.61
72110;BME280;59983;52.010;5.420;2023-04-04T05:37:38;103032.53;;;1.78;76.38
72110;BME280;59983;52.010;5.420;2023-04-04T05:40:07;103031.56;;;1.84;76.37
72110;BME280;59983;52.010;5.420;2023-04-04T05:42:33;103032.72;;;1.77;76.92
72110;BME280;59983;52.010;5.420;2023-04-04T05:45:00;103033.91;;;1.81;76.64
72110;BME280;59983;52.010;5.420;2023-04-04T05:47:27;103038.78;;;1.84;76.58
72110;BME280;59983;52.010;5.420;2023-04-04T05:49:53;103044.28;;;1.89;76.63
72110;BME280;59983;52.010;5.420;2023-04-04T05:52:20;103036.72;;;1.86;76.67
72110;BME280;59983;52.010;5.420;2023-04-04T05:54:47;103046.00;;;1.83;76.86
72110;BME280;59983;52.010;5.420;2023-04-04T05:57:13;103042.16;;;1.91;77.13
72110;BME280;59983;52.010;5.420;2023-04-04T05:59:40;103047.66;;;1.96;76.91
72110;BME280;59983;52.010;5.420;2023-04-04T06:02:06;103054.88;;;1.95;77.00
72110;BME280;59983;52.010;5.420;2023-04-04T06:04:33;103061.72;;;2.03;77.33
72110;BME280;59983;52.010;5.420;2023-04-04T06:07:00;103061.50;;;2.16;76.57
72110;BME280;59983;52.010;5.420;2023-04-04T06:09:26;103064.19;;;2.16;76.64
72110;BME280;59983;52.010;5.420;2023-04-04T06:11:53;103052.53;;;2.22;76.76
72110;BME280;59983;52.010;5.420;2023-04-04T06:14:19;103058.00;;;2.27;76.25
72110;BME280;59983;52.010;5.420;2023-04-04T06:16:46;103050.19;;;2.26;76.50
72110;BME280;59983;52.010;5.420;2023-04-04T06:19:12;103048.34;;;2.26;76.42
72110;BME280;59983;52.010;5.420;2023-04-04T06:21:39;103045.44;;;2.40;77.01
72110;BME280;59983;52.010;5.420;2023-04-04T06:24:06;103045.59;;;2.62;76.33
72110;BME280;59983;52.010;5.420;2023-04-04T06:26:32;103047.66;;;2.71;75.81
72110;BME280;59983;52.010;5.420;2023-04-04T06:28:59;103041.69;;;2.81;75.88
72110;BME280;59983;52.010;5.420;2023-04-04T06:31:26;103048.56;;;2.89;75.77
72110;BME280;59983;52.010;5.420;2023-04-04T06:33:52;103047.34;;;2.96;75.45
72110;BME280;59983;52.010;5.420;2023-04-04T06:36:19;103038.94;;;3.04;75.62
72110;BME280;59983;52.010;5.420;2023-04-04T06:38:46;103035.88;;;3.12;75.01
72110;BME280;59983;52.010;5.420;2023-04-04T06:41:13;103046.03;;;3.10;75.33
72110;BME280;59983;52.010;5.420;2023-04-04T06:43:40;103045.41;;;3.20;75.28
72110;BME280;59983;52.010;5.420;2023-04-04T06:46:06;103046.41;;;3.31;74.82
72110;BME280;59983;52.010;5.420;2023-04-04T06:48:33;103049.00;;;3.42;74.60
72110;BME280;59983;52.010;5.420;2023-04-04T06:50:59;103047.91;;;3.55;73.88
72110;BME280;59983;52.010;5.420;2023-04-04T06:53:26;103056.69;;;3.67;73.74
72110;BME280;59983;52.010;5.420;2023-04-04T06:55:53;103059.25;;;3.79;73.57
72110;BME280;59983;52.010;5.420;2023-04-04T06:58:19;103055.72;;;3.90;73.38
72110;BME280;59983;52.010;5.420;2023-04-04T07:00:46;103065.13;;;3.93;72.97
72110;BME280;59983;52.010;5.420;2023-04-04T07:03:13;103069.84;;;4.03;72.58
72110;BME280;59983;52.010;5.420;2023-04-04T07:05:39;103065.53;;;4.18;72.68
72110;BME280;59983;52.010;5.420;2023-04-04T07:08:07;103067.78;;;4.26;71.99
72110;BME280;59983;52.010;5.420;2023-04-04T07:10:34;103071.41;;;4.37;71.99
72110;BME280;59983;52.010;5.420;2023-04-04T07:13:00;103069.63;;;4.43;71.92
72110;BME280;59983;52.010;5.420;2023-04-04T07:15:27;103066.31;;;4.58;71.38
72110;BME280;59983;52.010;5.420;2023-04-04T07:17:53;103075.81;;;4.65;71.68
72110;BME280;59983;52.010;5.420;2023-04-04T07:20:20;103062.75;;;4.74;70.90
72110;BME280;59983;52.010;5.420;2023-04-04T07:22:47;103064.50;;;4.85;70.94
72110;BME280;59983;52.010;5.420;2023-04-04T07:25:14;103063.34;;;5.03;70.95
72110;BME280;59983;52.010;5.420;2023-04-04T07:27:40;103065.38;;;5.13;69.91
72110;BME280;59983;52.010;5.420;2023-04-04T07:30:07;103063.34;;;5.30;69.66
72110;BME280;59983;52.010;5.420;2023-04-04T07:32:34;103052.75;;;5.45;69.75
72110;BME280;59983;52.010;5.420;2023-04-04T07:35:01;103067.41;;;5.59;69.14
72110;BME280;59983;52.010;5.420;2023-04-04T07:37:27;103058.13;;;5.77;68.98
72110;BME280;59983;52.010;5.420;2023-04-04T07:39:54;103061.56;;;6.00;68.28
72110;BME280;59983;52.010;5.420;2023-04-04T07:42:21;103063.00;;;6.17;68.14
72110;BME280;59983;52.010;5.420;2023-04-04T07:44:51;103059.94;;;6.41;69.64
72110;BME280;59983;52.010;5.420;2023-04-04T07:47:17;103059.25;;;6.66;68.90
72110;BME280;59983;52.010;5.420;2023-04-04T07:49:44;103058.72;;;6.74;65.32
72110;BME280;59983;52.010;5.420;2023-04-04T07:52:11;103053.81;;;6.56;65.95
72110;BME280;59983;52.010;5.420;2023-04-04T07:54:37;103044.41;;;6.68;64.92
72110;BME280;59983;52.010;5.420;2023-04-04T07:57:05;103060.88;;;6.77;64.10
72110;BME280;59983;52.010;5.420;2023-04-04T07:59:35;103047.16;;;6.84;62.80
72110;BME280;59983;52.010;5.420;2023-04-04T08:02:02;103047.44;;;6.87;62.24
72110;BME280;59983;52.010;5.420;2023-04-04T08:04:28;103041.81;;;6.99;62.24
72110;BME280;59983;52.010;5.420;2023-04-04T08:06:55;103038.31;;;7.14;61.27
72110;BME280;59983;52.010;5.420;2023-04-04T08:09:22;103044.59;;;7.34;61.33
72110;BME280;59983;52.010;5.420;2023-04-04T08:11:48;103041.91;;;7.60;59.93
72110;BME280;59983;52.010;5.420;2023-04-04T08:14:15;103040.00;;;7.65;57.81
72110;BME280;59983;52.010;5.420;2023-04-04T08:16:41;103045.13;;;7.87;57.75
72110;BME280;59983;52.010;5.420;2023-04-04T08:19:08;103039.94;;;8.16;56.37
72110;BME280;59983;52.010;5.420;2023-04-04T08:21:35;103042.88;;;8.20;55.50
72110;BME280;59983;52.010;5.420;2023-04-04T08:24:01;103042.88;;;8.20;53.92
72110;BME280;59983;52.010;5.420;2023-04-04T08:26:28;103033.41;;;8.28;53.26
72110;BME280;59983;52.010;5.420;2023-04-04T08:28:54;103033.41;;;8.28;52.88
72110;BME280;59983;52.010;5.420;2023-04-04T08:31:21;103033.09;;;8.49;52.61
72110;BME280;59983;52.010;5.420;2023-04-04T08:33:49;103042.44;;;8.72;51.01
72110;BME280;59983;52.010;5.420;2023-04-04T08:36:16;103036.66;;;8.94;50.85
72110;BME280;59983;52.010;5.420;2023-04-04T08:38:43;103026.56;;;9.10;50.39
72110;BME280;59983;52.010;5.420;2023-04-04T08:41:11;103028.06;;;9.26;49.07
72110;BME280;59983;52.010;5.420;2023-04-04T08:43:39;103026.09;;;9.37;49.21
72110;BME280;59983;52.010;5.420;2023-04-04T08:46:08;103013.00;;;9.49;48.69
72110;BME280;59983;52.010;5.420;2023-04-04T08:48:38;103021.75;;;9.70;48.17
72110;BME280;59983;52.010;5.420;2023-04-04T08:51:07;103023.84;;;9.78;47.65
72110;BME280;59983;52.010;5.420;2023-04-04T08:53:36;103019.84;;;10.00;47.00
72110;BME280;59983;52.010;5.420;2023-04-04T08:56:04;103024.38;;;10.04;46.54
72110;BME280;59983;52.010;5.420;2023-04-04T08:58:30;103024.44;;;10.28;46.92
72110;BME280;59983;52.010;5.420;2023-04-04T09:00:58;103028.75;;;10.29;45.45
72110;BME280;59983;52.010;5.420;2023-04-04T09:03:26;103017.44;;;10.46;45.26
72110;BME280;59983;52.010;5.420;2023-04-04T09:05:57;103032.50;;;10.57;44.67
72110;BME280;59983;52.010;5.420;2023-04-04T09:08:23;103015.78;;;10.26;42.81
72110;BME280;59983;52.010;5.420;2023-04-04T09:10:51;103020.75;;;10.43;43.40
72110;BME280;59983;52.010;5.420;2023-04-04T09:13:18;103028.81;;;10.48;43.78
72110;BME280;59983;52.010;5.420;2023-04-04T09:15:47;103030.84;;;10.37;45.07
72110;BME280;59983;52.010;5.420;2023-04-04T09:18:15;103032.84;;;10.50;43.65
72110;BME280;59983;52.010;5.420;2023-04-04T09:20:43;103022.38;;;10.63;45.05
72110;BME280;59983;52.010;5.420;2023-04-04T09:23:14;103012.50;;;10.72;45.01
72110;BME280;59983;52.010;5.420;2023-04-04T09:25:46;103013.00;;;10.93;44.93
72110;BME280;59983;52.010;5.420;2023-04-04T09:28:29;103016.50;;;11.12;45.18
72110;BME280;59983;52.010;5.420;2023-04-04T09:30:55;103018.41;;;11.30;45.28
72110;BME280;59983;52.010;5.420;2023-04-04T09:33:22;103016.53;;;11.31;45.13
72110;BME280;59983;52.010;5.420;2023-04-04T09:36:05;103012.84;;;11.22;44.93
72110;BME280;59983;52.010;5.420;2023-04-04T09:38:36;103003.94;;;11.35;44.56
72110;BME280;59983;52.010;5.420;2023-04-04T09:41:06;103019.41;;;11.53;43.09
72110;BME280;59983;52.010;5.420;2023-04-04T09:43:33;103010.63;;;11.43;43.36
72110;BME280;59983;52.010;5.420;2023-04-04T09:46:02;103008.38;;;11.31;42.41
72110;BME280;59983;52.010;5.420;2023-04-04T09:48:32;102996.75;;;11.25;43.21
72110;BME280;59983;52.010;5.420;2023-04-04T09:51:03;102993.56;;;11.37;42.31
72110;BME280;59983;52.010;5.420;2023-04-04T09:53:33;103001.47;;;11.20;41.40
72110;BME280;59983;52.010;5.420;2023-04-04T09:55:59;102996.41;;;11.32;43.37
72110;BME280;59983;52.010;5.420;2023-04-04T09:58:29;103008.06;;;11.32;40.70
72110;BME280;59983;52.010;5.420;2023-04-04T10:01:01;102999.72;;;10.91;42.51
72110;BME280;59983;52.010;5.420;2023-04-04T10:03:28;102990.69;;;11.15;42.88
72110;BME280;59983;52.010;5.420;2023-04-04T10:05:58;102994.25;;;11.29;43.38
72110;BME280;59983;52.010;5.420;2023-04-04T10:08:27;102995.72;;;11.40;43.57
72110;BME280;59983;52.010;5.420;2023-04-04T10:11:03;102999.47;;;11.25;42.92
72110;BME280;59983;52.010;5.420;2023-04-04T10:13:35;102991.91;;;11.41;44.12
72110;BME280;59983;52.010;5.420;2023-04-04T10:16:03;102989.69;;;11.57;43.84
72110;BME280;59983;52.010;5.420;2023-04-04T10:18:31;102995.38;;;11.74;42.49
72110;BME280;59983;52.010;5.420;2023-04-04T10:21:03;102985.44;;;11.83;42.28
72110;BME280;59983;52.010;5.420;2023-04-04T10:23:43;102978.94;;;11.84;40.42
72110;BME280;59983;52.010;5.420;2023-04-04T10:26:11;102977.59;;;11.82;39.55
72110;BME280;59983;52.010;5.420;2023-04-04T10:28:38;102974.38;;;11.80;41.12
72110;BME280;59983;52.010;5.420;2023-04-04T10:36:27;102961.66;;;12.44;41.59
72110;BME280;59983;52.010;5.420;2023-04-04T10:39:10;102969.19;;;12.61;41.13
72110;BME280;59983;52.010;5.420;2023-04-04T10:41:39;102962.44;;;12.58;39.95
72110;BME280;59983;52.010;5.420;2023-04-04T10:44:19;102950.19;;;12.47;38.78
72110;BME280;59983;52.010;5.420;2023-04-04T10:46:52;102950.97;;;12.47;41.10
72110;BME280;59983;52.010;5.420;2023-04-04T10:49:20;102950.84;;;12.53;38.75
72110;BME280;59983;52.010;5.420;2023-04-04T10:51:47;102948.75;;;12.50;40.61
72110;BME280;59983;52.010;5.420;2023-04-04T10:54:24;102945.44;;;12.39;39.31
72110;BME280;59983;52.010;5.420;2023-04-04T10:56:51;102941.44;;;12.23;41.19
72110;BME280;59983;52.010;5.420;2023-04-04T10:59:17;102951.13;;;12.15;42.16
72110;BME280;59983;52.010;5.420;2023-04-04T11:04:16;102943.97;;;12.05;41.43
72110;BME280;59983;52.010;5.420;2023-04-04T11:09:51;102938.50;;;12.19;38.74
72110;BME280;59983;52.010;5.420;2023-04-04T11:12:31;102945.06;;;12.18;39.16
72110;BME280;59983;52.010;5.420;2023-04-04T11:23:08;102930.19;;;12.52;38.36
72110;BME280;59983;52.010;5.420;2023-04-04T11:25:39;102923.09;;;12.01;37.62
72110;BME280;59983;52.010;5.420;2023-04-04T11:28:11;102926.84;;;11.91;38.54
72110;BME280;59983;52.010;5.420;2023-04-04T11:30:42;102916.97;;;11.81;37.99
72110;BME280;59983;52.010;5.420;2023-04-04T11:33:25;102918.19;;;12.03;38.08
72110;BME280;59983;52.010;5.420;2023-04-04T11:35:57;102914.53;;;12.07;38.73
72110;BME280;59983;52.010;5.420;2023-04-04T11:38:25;102913.91;;;12.38;40.34
72110;BME280;59983;52.010;5.420;2023-04-04T11:40:53;102904.16;;;12.59;39.64
72110;BME280;59983;52.010;5.420;2023-04-04T11:43:20;102903.88;;;12.83;39.69
72110;BME280;59983;52.010;5.420;2023-04-04T11:45:47;102905.84;;;12.91;38.31
72110;BME280;59983;52.010;5.420;2023-04-04T11:48:15;102908.25;;;12.93;39.84
72110;BME280;59983;52.010;5.420;2023-04-04T11:50:45;102902.94;;;12.88;37.47
72110;BME280;59983;52.010;5.420;2023-04-04T11:53:14;102898.47;;;12.69;36.87
72110;BME280;59983;52.010;5.420;2023-04-04T11:55:43;102887.47;;;12.74;38.26
72110;BME280;59983;52.010;5.420;2023-04-04T11:58:14;102887.56;;;12.69;35.10
72110;BME280;59983;52.010;5.420;2023-04-04T12:00:41;102883.97;;;12.60;36.01
72110;BME280;59983;52.010;5.420;2023-04-04T12:03:10;102888.63;;;12.60;36.87
72110;BME280;59983;52.010;5.420;2023-04-04T12:05:39;102883.06;;;12.87;37.21
72110;BME280;59983;52.010;5.420;2023-04-04T12:08:08;102889.16;;;13.15;37.41
72110;BME280;59983;52.010;5.420;2023-04-04T12:10:37;102891.28;;;13.49;38.46
72110;BME280;59983;52.010;5.420;2023-04-04T12:13:05;102877.09;;;13.61;37.82
72110;BME280;59983;52.010;5.420;2023-04-04T12:15:35;102876.66;;;13.37;36.81
72110;BME280;59983;52.010;5.420;2023-04-04T12:18:06;102870.81;;;13.69;38.54
72110;BME280;59983;52.010;5.420;2023-04-04T12:20:32;102867.66;;;13.84;36.70
72110;BME280;59983;52.010;5.420;2023-04-04T12:23:00;102867.53;;;13.89;37.94
72110;BME280;59983;52.010;5.420;2023-04-04T12:25:26;102861.13;;;14.03;34.88
72110;BME280;59983;52.010;5.420;2023-04-04T12:27:55;102857.06;;;13.83;34.49
72110;BME280;59983;52.010;5.420;2023-04-04T12:30:22;102855.94;;;13.75;34.99
72110;BME280;59983;52.010;5.420;2023-04-04T12:32:49;102851.34;;;14.02;36.45
72110;BME280;59983;52.010;5.420;2023-04-04T12:35:16;102850.81;;;13.82;34.18
72110;BME280;59983;52.010;5.420;2023-04-04T12:38:04;102851.19;;;14.07;35.48
72110;BME280;59983;52.010;5.420;2023-04-04T12:40:37;102843.84;;;14.51;35.44
72110;BME280;59983;52.010;5.420;2023-04-04T12:43:05;102840.94;;;14.64;32.98
72110;BME280;59983;52.010;5.420;2023-04-04T12:45:36;102839.66;;;14.53;32.03
72110;BME280;59983;52.010;5.420;2023-04-04T12:48:09;102830.66;;;14.35;34.65
72110;BME280;59983;52.010;5.420;2023-04-04T12:50:48;102835.00;;;14.45;35.07
72110;BME280;59983;52.010;5.420;2023-04-04T12:53:15;102832.44;;;14.23;33.12
72110;BME280;59983;52.010;5.420;2023-04-04T12:55:50;102831.78;;;14.26;32.36
72110;BME280;59983;52.010;5.420;2023-04-04T12:58:19;102824.84;;;14.37;34.04
72110;BME280;59983;52.010;5.420;2023-04-04T13:00:50;102819.09;;;14.56;34.98
72110;BME280;59983;52.010;5.420;2023-04-04T13:03:19;102824.53;;;14.64;34.11
72110;BME280;59983;52.010;5.420;2023-04-04T13:05:48;102814.63;;;14.51;34.32
72110;BME280;59983;52.010;5.420;2023-04-04T13:08:15;102815.72;;;14.59;34.36
72110;BME280;59983;52.010;5.420;2023-04-04T13:10:59;102808.59;;;14.84;35.69
72110;BME280;59983;52.010;5.420;2023-04-04T13:13:37;102808.34;;;15.15;36.13
72110;BME280;59983;52.010;5.420;2023-04-04T13:16:05;102797.03;;;15.25;34.37
72110;BME280;59983;52.010;5.420;2023-04-04T13:18:36;102795.84;;;15.05;32.10
72110;BME280;59983;52.010;5.420;2023-04-04T13:21:06;102794.44;;;14.90;33.95
72110;BME280;59983;52.010;5.420;2023-04-04T13:23:35;102793.47;;;14.95;35.98
72110;BME280;59983;52.010;5.420;2023-04-04T13:26:02;102786.84;;;15.05;35.63
72110;BME280;59983;52.010;5.420;2023-04-04T13:28:30;102791.91;;;14.77;30.15